Time;durP1;ratioP1;P1;durP2;ratioP2;P2;SDS_P1;SDS_P2;PMS_P1;PMS_P2;Temp;Humidity;BMP_temperature;BMP_pressure;BME280_temperature;BME280_humidity;BME280_pressure;Samples;Min_cycle;Max_cycle;Signal;HPM_P1;HPM_P2
2022/05/11 00:00:09;;;;;;;0.00;0.00;;;19.50;75.30;;;;;;4161575;28;20124;-67
2022/05/11 00:02:32;;;;;;;0.00;0.00;;;19.50;75.50;;;;;;4147824;28;20088;-70
2022/05/11 00:05:00;;;;;;;0.00;0.00;;;19.50;75.50;;;;;;4138356;28;20119;-72
2022/05/11 00:07:29;;;;;;;0.00;0.00;;;19.50;75.70;;;;;;4151008;28;20034;-69
2022/05/11 00:09:56;;;;;;;0.00;0.00;;;19.50;75.80;;;;;;4151060;28;20049;-71
2022/05/11 00:12:18;;;;;;;0.00;0.00;;;19.50;76.00;;;;;;4164521;28;20060;-69
2022/05/11 00:14:50;;;;;;;0.00;0.00;;;19.40;76.30;;;;;;4150956;28;20066;-69
2022/05/11 00:17:19;;;;;;;0.00;0.00;;;19.50;76.60;;;;;;4151585;28;20054;-73
2022/05/11 00:19:41;;;;;;;0.00;0.00;;;19.40;76.60;;;;;;4150873;28;20042;-71
2022/05/11 00:22:06;;;;;;;0.00;0.00;;;19.40;76.80;;;;;;4150874;28;20128;-70
2022/05/11 00:24:48;;;;;;;0.00;0.00;;;19.30;76.70;;;;;;4161924;28;20075;-68
2022/05/11 00:27:10;;;;;;;0.00;0.00;;;19.30;76.50;;;;;;4164446;28;20076;-70
2022/05/11 00:29:35;;;;;;;0.00;0.00;;;19.30;76.50;;;;;;4164341;28;20543;-69
2022/05/11 00:32:09;;;;;;;0.00;0.00;;;19.30;76.80;;;;;;4151995;28;20057;-69
2022/05/11 00:34:41;;;;;;;0.00;0.00;;;19.30;76.80;;;;;;4150601;28;20054;-70
2022/05/11 00:37:13;;;;;;;0.00;0.00;;;19.20;76.90;;;;;;4150445;28;20053;-71
2022/05/11 00:39:40;;;;;;;0.00;0.00;;;19.20;76.90;;;;;;4151316;28;20052;-69
2022/05/11 00:42:15;;;;;;;0.00;0.00;;;19.20;77.00;;;;;;4151250;28;20046;-68
2022/05/11 00:44:45;;;;;;;0.00;0.00;;;19.20;77.10;;;;;;4136968;28;20385;-71
2022/05/11 00:47:38;;;;;;;0.00;0.00;;;19.20;76.70;;;;;;4151571;28;20050;-68
2022/05/11 00:50:12;;;;;;;0.00;0.00;;;19.10;76.40;;;;;;4153098;28;20050;-71
2022/05/11 00:52:45;;;;;;;0.00;0.00;;;18.90;76.40;;;;;;4153164;28;20060;-69
2022/05/11 00:55:35;;;;;;;0.00;0.00;;;18.80;77.30;;;;;;4166764;28;20053;-69
2022/05/11 00:58:06;;;;;;;0.00;0.00;;;18.70;76.60;;;;;;4167444;28;20136;-70
2022/05/11 01:00:42;;;;;;;0.00;0.00;;;18.60;76.70;;;;;;4139651;28;20041;-69
2022/05/11 01:03:25;;;;;;;0.00;0.00;;;18.60;76.70;;;;;;4166496;28;20119;-74
2022/05/11 01:05:53;;;;;;;0.00;0.00;;;18.50;76.80;;;;;;4166659;28;20045;-70
2022/05/11 01:08:19;;;;;;;0.00;0.00;;;18.40;77.10;;;;;;4152664;28;20046;-69
2022/05/11 01:10:45;;;;;;;0.00;0.00;;;18.30;77.30;;;;;;4166406;28;20045;-71
2022/05/11 01:13:11;;;;;;;0.00;0.00;;;18.30;77.30;;;;;;4152772;28;20049;-71
2022/05/11 01:15:53;;;;;;;0.00;0.00;;;18.40;77.10;;;;;;4167087;28;20393;-69
2022/05/11 01:18:33;;;;;;;0.00;0.00;;;18.50;76.80;;;;;;4166361;28;20076;-71
2022/05/11 01:20:56;;;;;;;0.00;0.00;;;18.50;76.90;;;;;;4166168;28;20353;-71
2022/05/11 01:23:47;;;;;;;0.00;0.00;;;18.50;77.10;;;;;;4166315;28;20081;-70
2022/05/11 01:26:15;;;;;;;0.00;0.00;;;18.60;77.10;;;;;;4166299;28;20057;-70
2022/05/11 01:28:46;;;;;;;0.00;0.00;;;18.50;77.30;;;;;;4139293;28;20350;-71
2022/05/11 01:31:15;;;;;;;0.00;0.00;;;18.50;77.40;;;;;;4152477;28;20520;-69
2022/05/11 01:33:46;;;;;;;0.00;0.00;;;18.50;77.30;;;;;;4166960;28;20060;-74
2022/05/11 01:36:28;;;;;;;0.00;0.00;;;18.50;77.30;;;;;;4139086;28;20379;-72
2022/05/11 01:39:02;;;;;;;0.00;0.00;;;18.50;77.70;;;;;;4152281;28;20056;-69
2022/05/11 01:41:35;;;;;;;0.00;0.00;;;18.50;77.60;;;;;;4138806;28;20544;-71
2022/05/11 01:43:58;;;;;;;0.00;0.00;;;18.50;77.70;;;;;;4152241;28;20099;-70
2022/05/11 01:46:23;;;;;;;0.00;0.00;;;18.50;77.80;;;;;;4152386;28;20084;-71
2022/05/11 01:48:45;;;;;;;0.00;0.00;;;18.50;78.20;;;;;;4149358;28;20465;-68
2022/05/11 01:51:10;;;;;;;0.00;0.00;;;18.40;78.10;;;;;;4163504;28;20049;-71
2022/05/11 01:53:32;;;;;;;0.00;0.00;;;18.40;78.10;;;;;;4149390;28;20136;-68
2022/05/11 01:55:59;;;;;;;0.00;0.00;;;18.40;78.20;;;;;;4149456;28;20083;-71
2022/05/11 01:58:24;;;;;;;0.00;0.00;;;18.40;78.20;;;;;;4163416;28;20045;-71
2022/05/11 02:00:49;;;;;;;0.00;0.00;;;18.40;78.30;;;;;;4122153;28;20053;-70
2022/05/11 02:03:17;;;;;;;0.00;0.00;;;18.40;78.40;;;;;;4149488;28;20116;-71
2022/05/11 02:08:22;;;;;;;0.00;0.00;;;18.20;78.00;;;;;;4149222;28;20046;-69
2022/05/11 02:10:45;;;;;;;0.00;0.00;;;18.20;78.30;;;;;;4163001;28;20095;-73
2022/05/11 02:13:11;;;;;;;0.00;0.00;;;18.20;78.40;;;;;;4135637;28;20747;-71
2022/05/11 02:15:37;;;;;;;0.00;0.00;;;18.20;78.50;;;;;;4149475;28;20133;-69
2022/05/11 02:17:59;;;;;;;0.00;0.00;;;18.20;78.60;;;;;;4162887;28;20064;-68
2022/05/11 02:20:22;;;;;;;0.00;0.00;;;18.10;78.70;;;;;;4162746;28;20469;-70
2022/05/11 02:22:44;;;;;;;0.00;0.00;;;18.10;78.90;;;;;;4135302;28;20050;-71
2022/05/11 02:25:06;;;;;;;0.00;0.00;;;18.10;78.90;;;;;;4135551;28;20105;-68
2022/05/11 02:27:33;;;;;;;0.00;0.00;;;18.10;78.80;;;;;;4148553;28;20058;-68
2022/05/11 02:29:57;;;;;;;0.00;0.00;;;18.10;79.00;;;;;;4149052;28;20108;-70
2022/05/11 02:32:19;;;;;;;0.00;0.00;;;18.00;79.20;;;;;;4135238;28;20070;-71
2022/05/11 02:37:22;;;;;;;0.00;0.00;;;18.00;79.50;;;;;;4162683;28;20049;-71
2022/05/11 02:39:48;;;;;;;0.00;0.00;;;17.80;80.00;;;;;;4162676;28;20502;-68
2022/05/11 02:42:10;;;;;;;0.00;0.00;;;17.70;80.20;;;;;;4162411;28;20099;-73
2022/05/11 02:44:32;;;;;;;0.00;0.00;;;17.70;80.20;;;;;;4162526;28;20442;-67
2022/05/11 02:46:59;;;;;;;0.00;0.00;;;17.70;80.10;;;;;;4148970;28;20369;-70
2022/05/11 02:49:24;;;;;;;0.00;0.00;;;17.70;80.30;;;;;;4148875;28;20484;-69
2022/05/11 02:51:46;;;;;;;0.00;0.00;;;17.60;80.40;;;;;;4148584;28;20038;-71
2022/05/11 02:54:11;;;;;;;0.00;0.00;;;17.60;80.60;;;;;;4162461;28;20302;-70
2022/05/11 02:56:36;;;;;;;0.00;0.00;;;17.60;80.80;;;;;;4148793;28;20440;-73
2022/05/11 02:58:59;;;;;;;0.00;0.00;;;17.60;80.70;;;;;;4135002;28;20413;-69
2022/05/11 03:01:21;;;;;;;0.00;0.00;;;17.60;80.70;;;;;;4148357;28;20049;-68
2022/05/11 03:03:45;;;;;;;0.00;0.00;;;17.60;80.70;;;;;;4148134;28;20038;-69
2022/05/11 03:06:09;;;;;;;0.00;0.00;;;17.60;80.70;;;;;;4134877;28;20054;-71
2022/05/11 03:08:42;;;;;;;0.00;0.00;;;17.40;80.70;;;;;;4148296;28;20057;-72
2022/05/11 03:11:05;;;;;;;0.00;0.00;;;17.40;80.90;;;;;;4121288;28;20093;-70
2022/05/11 03:13:34;;;;;;;0.00;0.00;;;17.40;81.00;;;;;;4161805;28;20049;-71
2022/05/11 03:15:56;;;;;;;0.00;0.00;;;17.40;81.00;;;;;;4148493;28;20053;-69
2022/05/11 03:18:20;;;;;;;0.00;0.00;;;17.40;81.10;;;;;;4148460;28;20081;-69
2022/05/11 03:20:42;;;;;;;0.00;0.00;;;17.40;81.10;;;;;;4134720;28;20108;-70
2022/05/11 03:23:11;;;;;;;0.00;0.00;;;17.40;81.10;;;;;;4148406;28;20483;-72
2022/05/11 03:25:33;;;;;;;0.00;0.00;;;17.30;81.10;;;;;;4134627;28;20476;-69
2022/05/11 03:27:57;;;;;;;0.00;0.00;;;17.30;81.40;;;;;;4148141;28;20045;-71
2022/05/11 03:30:21;;;;;;;0.00;0.00;;;17.20;81.60;;;;;;4148046;28;20056;-69
2022/05/11 03:35:24;;;;;;;0.00;0.00;;;17.10;82.00;;;;;;4148167;28;20104;-69
2022/05/11 03:37:50;;;;;;;0.00;0.00;;;17.10;82.10;;;;;;4134761;28;20054;-70
2022/05/11 03:40:15;;;;;;;0.00;0.00;;;17.10;82.00;;;;;;4148049;28;20531;-69
2022/05/11 03:42:38;;;;;;;0.00;0.00;;;17.20;82.10;;;;;;4134286;28;20105;-70
2022/05/11 03:45:16;;;;;;;0.00;0.00;;;17.20;81.90;;;;;;4134940;28;20551;-69
2022/05/11 03:47:38;;;;;;;0.00;0.00;;;17.20;82.10;;;;;;4147668;28;20053;-70
2022/05/11 03:50:00;;;;;;;0.00;0.00;;;17.10;82.00;;;;;;4147962;28;20060;-72
2022/05/11 03:52:25;;;;;;;0.00;0.00;;;17.10;82.00;;;;;;4161387;28;20046;-70
2022/05/11 03:54:47;;;;;;;0.00;0.00;;;17.10;82.10;;;;;;4161525;28;20071;-69
2022/05/11 03:57:13;;;;;;;0.00;0.00;;;17.10;82.00;;;;;;4148282;28;20045;-72
2022/05/11 03:59:35;;;;;;;0.00;0.00;;;17.10;82.00;;;;;;4147956;28;20050;-72
2022/05/11 04:02:02;;;;;;;0.00;0.00;;;17.10;82.00;;;;;;4148095;28;20429;-73
2022/05/11 04:04:29;;;;;;;0.00;0.00;;;17.10;81.90;;;;;;4147992;28;20038;-70
2022/05/11 04:06:51;;;;;;;0.00;0.00;;;17.10;82.00;;;;;;4148065;28;20064;-67
2022/05/11 04:09:13;;;;;;;0.00;0.00;;;17.10;81.90;;;;;;4134632;28;20062;-68
2022/05/11 04:11:36;;;;;;;0.00;0.00;;;17.10;81.90;;;;;;4147933;28;20076;-67
2022/05/11 04:13:58;;;;;;;0.00;0.00;;;17.10;82.10;;;;;;4148295;28;20100;-67
2022/05/11 04:16:20;;;;;;;0.00;0.00;;;17.10;82.10;;;;;;4161565;28;20053;-66
2022/05/11 04:18:47;;;;;;;0.00;0.00;;;17.10;82.10;;;;;;4148077;28;20133;-67
2022/05/11 04:21:12;;;;;;;0.00;0.00;;;17.10;82.20;;;;;;4161623;28;20095;-67
2022/05/11 04:23:40;;;;;;;0.00;0.00;;;17.10;82.30;;;;;;4148290;28;20085;-68
2022/05/11 04:26:04;;;;;;;0.00;0.00;;;17.20;82.30;;;;;;4148163;28;20484;-67
2022/05/11 04:28:32;;;;;;;0.00;0.00;;;17.20;82.30;;;;;;4134529;28;20097;-65
2022/05/11 04:31:05;;;;;;;0.00;0.00;;;17.20;82.20;;;;;;4148031;28;20045;-67
2022/05/11 04:33:32;;;;;;;0.00;0.00;;;17.20;82.20;;;;;;4161593;28;20053;-67
2022/05/11 04:36:00;;;;;;;0.00;0.00;;;17.20;82.40;;;;;;4161368;28;20149;-68
2022/05/11 04:38:25;;;;;;;0.00;0.00;;;17.20;82.50;;;;;;4161713;28;20096;-69
2022/05/11 04:40:52;;;;;;;0.00;0.00;;;17.20;82.60;;;;;;4135019;28;20081;-66
2022/05/11 04:43:17;;;;;;;0.00;0.00;;;17.20;82.70;;;;;;4134266;28;20058;-68
2022/05/11 04:45:43;;;;;;;0.00;0.00;;;17.20;82.80;;;;;;4134595;28;20050;-68
2022/05/11 04:48:11;;;;;;;0.00;0.00;;;17.10;83.20;;;;;;4131468;28;20081;-66
2022/05/11 04:50:35;;;;;;;0.00;0.00;;;17.10;83.50;;;;;;4147939;28;20053;-67
2022/05/11 04:53:02;;;;;;;0.00;0.00;;;17.10;83.50;;;;;;4148860;28;20057;-68
2022/05/11 04:55:29;;;;;;;0.00;0.00;;;17.10;83.80;;;;;;4135194;28;20043;-66
2022/05/11 04:57:51;;;;;;;0.00;0.00;;;17.10;84.10;;;;;;4135071;28;20583;-68
2022/05/11 05:00:13;;;;;;;0.00;0.00;;;17.20;84.00;;;;;;4134865;28;20057;-70
2022/05/11 05:02:38;;;;;;;0.00;0.00;;;17.20;83.80;;;;;;4134560;28;20049;-69
2022/05/11 05:05:05;;;;;;;0.00;0.00;;;17.30;84.00;;;;;;4134166;28;20370;-66
2022/05/11 05:07:28;;;;;;;0.00;0.00;;;17.40;83.90;;;;;;4134260;28;20369;-67
2022/05/11 05:09:52;;;;;;;0.00;0.00;;;17.40;83.30;;;;;;4134061;28;20100;-67
2022/05/11 05:12:14;;;;;;;0.00;0.00;;;17.30;83.10;;;;;;4134222;28;20137;-67
2022/05/11 05:14:39;;;;;;;0.00;0.00;;;17.30;83.10;;;;;;4134263;28;20062;-66
2022/05/11 05:17:05;;;;;;;0.00;0.00;;;17.20;83.10;;;;;;4147960;28;20081;-67
2022/05/11 05:19:30;;;;;;;0.00;0.00;;;17.30;82.80;;;;;;4147688;28;20049;-66
2022/05/11 05:21:54;;;;;;;0.00;0.00;;;17.30;82.60;;;;;;4134194;28;20085;-66
2022/05/11 05:24:16;;;;;;;0.00;0.00;;;17.40;82.50;;;;;;4134040;28;20158;-68
2022/05/11 05:26:40;;;;;;;0.00;0.00;;;17.50;82.80;;;;;;4134055;28;20073;-67
2022/05/11 05:31:45;;;;;;;0.00;0.00;;;17.60;81.40;;;;;;4134051;28;20089;-66
2022/05/11 05:34:09;;;;;;;0.00;0.00;;;17.70;80.90;;;;;;4133745;28;20141;-69
2022/05/11 05:36:41;;;;;;;0.00;0.00;;;17.70;80.70;;;;;;4133753;28;20050;-66
2022/05/11 05:39:07;;;;;;;0.00;0.00;;;17.80;80.30;;;;;;4147484;28;20096;-65
2022/05/11 05:41:33;;;;;;;0.00;0.00;;;17.80;80.10;;;;;;4133793;28;20444;-68
2022/05/11 05:44:00;;;;;;;0.00;0.00;;;17.90;79.80;;;;;;4133866;28;20069;-68
2022/05/11 05:46:29;;;;;;;0.00;0.00;;;18.00;79.90;;;;;;4147213;28;20038;-66
2022/05/11 05:48:54;;;;;;;0.00;0.00;;;18.20;79.70;;;;;;4133742;28;20148;-68
2022/05/11 05:51:18;;;;;;;0.00;0.00;;;18.20;79.60;;;;;;4133733;28;20069;-67
2022/05/11 05:53:40;;;;;;;0.00;0.00;;;18.30;79.50;;;;;;4147534;28;20558;-69
2022/05/11 05:56:07;;;;;;;0.00;0.00;;;18.40;78.80;;;;;;4133362;28;20112;-67
2022/05/11 05:58:31;;;;;;;0.00;0.00;;;18.40;79.00;;;;;;4120353;28;20059;-69
2022/05/11 06:00:56;;;;;;;0.00;0.00;;;18.50;78.30;;;;;;4132226;28;20109;-66
2022/05/11 06:03:23;;;;;;;0.00;0.00;;;18.50;78.60;;;;;;4147362;28;20056;-69
2022/05/11 06:05:47;;;;;;;0.00;0.00;;;18.70;78.90;;;;;;4133280;28;20066;-67
2022/05/11 06:08:16;;;;;;;0.00;0.00;;;18.80;78.20;;;;;;4147023;28;20053;-65
2022/05/11 06:10:40;;;;;;;0.00;0.00;;;18.90;77.30;;;;;;4133453;28;20050;-67
2022/05/11 06:13:05;;;;;;;0.00;0.00;;;18.70;76.90;;;;;;4133282;28;20054;-67
2022/05/11 06:15:27;;;;;;;0.00;0.00;;;18.70;77.30;;;;;;4133174;28;20058;-68
2022/05/11 06:17:49;;;;;;;0.00;0.00;;;18.90;77.70;;;;;;4133441;28;20105;-67
2022/05/11 06:20:12;;;;;;;0.00;0.00;;;19.10;77.40;;;;;;4119931;28;20046;-68
2022/05/11 06:22:37;;;;;;;0.00;0.00;;;19.40;77.10;;;;;;4146552;28;20236;-67
2022/05/11 06:25:02;;;;;;;0.00;0.00;;;19.50;77.40;;;;;;4132807;28;20109;-67
2022/05/11 06:27:29;;;;;;;0.00;0.00;;;19.50;78.00;;;;;;4132811;28;20079;-66
2022/05/11 06:29:59;;;;;;;0.00;0.00;;;19.50;78.10;;;;;;4146611;28;20068;-69
2022/05/11 06:32:25;;;;;;;0.00;0.00;;;19.40;78.30;;;;;;4146319;28;20057;-68
2022/05/11 06:34:48;;;;;;;0.00;0.00;;;19.40;79.00;;;;;;4132858;28;20759;-68
2022/05/11 06:37:10;;;;;;;0.00;0.00;;;19.40;79.10;;;;;;4132725;28;20099;-68
2022/05/11 06:39:35;;;;;;;0.00;0.00;;;19.20;79.60;;;;;;4132794;28;20076;-68
2022/05/11 06:41:57;;;;;;;0.00;0.00;;;19.10;79.50;;;;;;4132672;28;20049;-68
2022/05/11 06:44:19;;;;;;;0.00;0.00;;;19.10;79.90;;;;;;4132680;28;20473;-69
2022/05/11 06:46:44;;;;;;;0.00;0.00;;;19.30;79.40;;;;;;4146505;28;20065;-70
2022/05/11 06:49:12;;;;;;;0.00;0.00;;;19.20;79.10;;;;;;4146100;28;20100;-68
2022/05/11 06:51:36;;;;;;;0.00;0.00;;;19.10;79.50;;;;;;4146283;28;20049;-67
2022/05/11 06:59:30;;;;;;;0.00;0.00;;;19.50;78.40;;;;;;4132487;28;20062;-67
2022/05/11 07:01:58;;;;;;;0.00;0.00;;;19.60;78.00;;;;;;4145777;28;20048;-67
2022/05/11 07:04:23;;;;;;;0.00;0.00;;;19.60;77.80;;;;;;4119118;28;20069;-68
2022/05/11 07:06:45;;;;;;;0.00;0.00;;;19.70;77.60;;;;;;4132352;28;20132;-68
2022/05/11 07:09:09;;;;;;;0.00;0.00;;;19.60;77.20;;;;;;4119000;28;20082;-67
2022/05/11 07:14:16;;;;;;;0.00;0.00;;;19.70;77.60;;;;;;4145934;28;20221;-68
2022/05/11 07:16:41;;;;;;;0.00;0.00;;;19.80;77.10;;;;;;4132120;28;20062;-67
2022/05/11 07:19:08;;;;;;;0.00;0.00;;;19.90;77.10;;;;;;4132056;28;20050;-68
2022/05/11 07:21:30;;;;;;;0.00;0.00;;;20.10;76.60;;;;;;4118792;28;20049;-69
2022/05/11 07:23:57;;;;;;;0.00;0.00;;;20.20;76.10;;;;;;4145778;28;20104;-68
2022/05/11 07:26:19;;;;;;;0.00;0.00;;;20.20;75.30;;;;;;4145982;28;20100;-66
2022/05/11 07:28:43;;;;;;;0.00;0.00;;;20.10;75.40;;;;;;4132216;28;20050;-69
2022/05/11 07:31:08;;;;;;;0.00;0.00;;;20.00;76.00;;;;;;4145855;28;20064;-68
2022/05/11 07:33:31;;;;;;;0.00;0.00;;;19.90;76.40;;;;;;4145747;28;20046;-66
2022/05/11 07:36:01;;;;;;;0.00;0.00;;;20.00;76.50;;;;;;4132057;28;20489;-68
2022/05/11 07:38:25;;;;;;;0.00;0.00;;;20.10;76.60;;;;;;4132169;28;20046;-68
2022/05/11 07:40:47;;;;;;;0.00;0.00;;;20.20;76.80;;;;;;4145831;28;20037;-68
2022/05/11 07:43:12;;;;;;;0.00;0.00;;;20.40;76.30;;;;;;4145670;28;20140;-67
2022/05/11 07:45:37;;;;;;;0.00;0.00;;;20.40;75.80;;;;;;4118782;28;20046;-67
2022/05/11 07:48:02;;;;;;;0.00;0.00;;;20.60;75.50;;;;;;4131705;28;20108;-67
2022/05/11 07:50:27;;;;;;;0.00;0.00;;;20.70;75.00;;;;;;4131660;28;20053;-68
2022/05/11 07:52:54;;;;;;;0.00;0.00;;;20.80;74.60;;;;;;4131821;28;20070;-68
2022/05/11 07:55:24;;;;;;;0.00;0.00;;;20.90;73.80;;;;;;4145762;28;20041;-68
2022/05/11 08:00:27;;;;;;;0.00;0.00;;;20.90;73.30;;;;;;4131819;28;20103;-67
2022/05/11 08:02:51;;;;;;;0.00;0.00;;;20.90;72.00;;;;;;4118602;28;20317;-68
2022/05/11 08:05:15;;;;;;;0.00;0.00;;;20.80;73.10;;;;;;4132246;28;20042;-66
2022/05/11 08:07:39;;;;;;;0.00;0.00;;;20.90;71.90;;;;;;4145502;28;20177;-66
2022/05/11 08:10:09;;;;;;;0.00;0.00;;;20.80;71.60;;;;;;4145880;28;20038;-67
2022/05/11 08:12:32;;;;;;;0.00;0.00;;;20.80;70.40;;;;;;4132010;28;20046;-68
2022/05/11 08:14:57;;;;;;;0.00;0.00;;;20.90;70.10;;;;;;4145622;28;20445;-68
2022/05/11 08:17:24;;;;;;;0.00;0.00;;;21.10;70.10;;;;;;4131967;28;20065;-66
2022/05/11 08:19:51;;;;;;;0.00;0.00;;;21.40;69.80;;;;;;4145422;28;20052;-67
2022/05/11 08:22:12;;;;;;;0.00;0.00;;;21.50;69.60;;;;;;4145218;28;20069;-67
2022/05/11 08:24:40;;;;;;;0.00;0.00;;;21.60;69.30;;;;;;4146576;28;20111;-70
2022/05/11 08:27:03;;;;;;;0.00;0.00;;;21.80;69.50;;;;;;4135101;28;20608;-68
2022/05/11 08:34:49;;;;;;;0.00;0.00;;;22.00;67.80;;;;;;4148645;28;20374;-68
2022/05/11 08:37:12;;;;;;;0.00;0.00;;;22.10;67.70;;;;;;4148399;28;20116;-70
2022/05/11 08:39:37;;;;;;;0.00;0.00;;;22.10;67.10;;;;;;4148553;28;20081;-68
2022/05/11 08:42:02;;;;;;;0.00;0.00;;;22.20;66.50;;;;;;4148251;28;20045;-68
2022/05/11 08:44:34;;;;;;;0.00;0.00;;;22.40;66.00;;;;;;4134639;28;20054;-66
2022/05/11 08:47:06;;;;;;;;;;;22.50;65.80;;;;;;4135333;28;20073;-67
2022/05/11 08:49:53;;;;;;;0.00;0.00;;;22.50;65.50;;;;;;4148314;28;19922;-67
2022/05/11 08:52:48;;;;;;;0.00;0.00;;;22.50;65.30;;;;;;4148228;28;20050;-67
2022/05/11 08:55:17;;;;;;;0.00;0.00;;;22.50;65.40;;;;;;4134548;28;20082;-68
2022/05/11 08:57:41;;;;;;;0.00;0.00;;;22.80;65.30;;;;;;4134455;28;20042;-69
2022/05/11 09:00:12;;;;;;;0.00;0.00;;;22.90;64.40;;;;;;4148140;28;20041;-66
2022/05/11 09:02:53;;;;;;;0.00;0.00;;;23.10;65.20;;;;;;4121320;28;20085;-68
2022/05/11 09:05:23;;;;;;;0.00;0.00;;;23.10;64.00;;;;;;4148164;28;20385;-68
2022/05/11 09:07:49;;;;;;;0.00;0.00;;;23.10;63.50;;;;;;4134504;28;20055;-68
2022/05/11 09:10:31;;;;;;;0.00;0.00;;;23.20;62.50;;;;;;4134572;28;20157;-67
2022/05/11 09:13:02;;;;;;;0.00;0.00;;;23.30;62.10;;;;;;4134320;28;20054;-68
2022/05/11 09:16:03;;;;;;;0.00;0.00;;;23.40;61.20;;;;;;4147733;28;20160;-68
2022/05/11 09:18:31;;;;;;;0.00;0.00;;;23.50;63.10;;;;;;4085507;29;20058;-67
2022/05/11 09:20:55;;;;;;;0.00;0.00;;;23.50;60.70;;;;;;4130829;28;20058;-67
2022/05/11 09:23:31;;;;;;;0.00;0.00;;;23.60;61.00;;;;;;4147606;28;20046;-68
2022/05/11 09:25:59;;;;;;;0.00;0.00;;;23.80;61.70;;;;;;4134035;28;20500;-67
2022/05/11 09:28:27;;;;;;;0.00;0.00;;;24.00;61.10;;;;;;4134323;28;20481;-66
2022/05/11 09:30:57;;;;;;;0.00;0.00;;;23.80;59.90;;;;;;4147808;28;20499;-68
2022/05/11 09:33:25;;;;;;;0.00;0.00;;;23.80;59.10;;;;;;4147809;28;20042;-69
2022/05/11 09:35:47;;;;;;;0.00;0.00;;;23.70;58.60;;;;;;4147604;28;20042;-67
2022/05/11 09:38:20;;;;;;;0.00;0.00;;;23.50;58.20;;;;;;4134133;28;20112;-66
2022/05/11 09:40:53;;;;;;;0.00;0.00;;;23.40;58.50;;;;;;4133590;28;20065;-67
2022/05/11 09:43:46;;;;;;;0.00;0.00;;;23.50;57.60;;;;;;4147289;28;20038;-67
2022/05/11 09:46:37;;;;;;;0.00;0.00;;;23.40;57.50;;;;;;4147110;28;20045;-66
2022/05/11 09:49:29;;;;;;;0.00;0.00;;;23.40;58.60;;;;;;4129906;28;20661;-68
2022/05/11 09:51:55;;;;;;;0.00;0.00;;;23.60;58.00;;;;;;4147155;28;20069;-68
2022/05/11 09:54:46;;;;;;;0.00;0.00;;;23.80;56.90;;;;;;4147292;28;20045;-67
2022/05/11 09:57:11;;;;;;;0.00;0.00;;;23.70;57.00;;;;;;4147036;28;20080;-68
2022/05/11 09:59:49;;;;;;;0.00;0.00;;;23.80;57.60;;;;;;4133586;28;20150;-68
2022/05/11 10:02:36;;;;;;;0.00;0.00;;;24.00;57.20;;;;;;4132968;28;20054;-68
2022/05/11 10:05:09;;;;;;;0.00;0.00;;;24.20;57.00;;;;;;4133477;28;20129;-67
2022/05/11 10:08:10;;;;;;;0.00;0.00;;;24.20;56.70;;;;;;4147051;28;20054;-68
2022/05/11 10:10:42;;;;;;;0.00;0.00;;;24.20;56.90;;;;;;4116483;28;20046;-67
2022/05/11 10:13:23;;;;;;;;;;;24.30;55.80;;;;;;4133703;28;20060;-68
2022/05/11 10:24:24;;;;;;;0.00;0.00;;;24.40;58.20;;;;;;4146878;28;20096;-68
2022/05/11 10:27:01;;;;;;;0.00;0.00;;;24.30;59.30;;;;;;4133332;28;20400;-66
2022/05/11 10:30:01;;;;;;;0.00;0.00;;;24.20;57.10;;;;;;4133163;28;20089;-67
2022/05/11 10:32:50;;;;;;;0.00;0.00;;;24.30;57.70;;;;;;4129263;28;20058;-65
2022/05/11 10:35:52;;;;;;;0.00;0.00;;;24.40;55.90;;;;;;4133202;28;20697;-67
2022/05/11 10:38:38;;;;;;;0.00;0.00;;;24.40;55.70;;;;;;4119399;28;20056;-69
2022/05/11 10:41:22;;;;;;;0.00;0.00;;;24.60;56.30;;;;;;4132909;28;20465;-69
2022/05/11 10:43:54;;;;;;;0.00;0.00;;;24.80;55.30;;;;;;4119129;28;20078;-65
2022/05/11 10:46:36;;;;;;;0.00;0.00;;;24.70;54.60;;;;;;4146546;28;20054;-71
2022/05/11 10:49:01;;;;;;;0.00;0.00;;;24.60;54.70;;;;;;4132552;28;20144;-65
2022/05/11 10:51:33;;;;;;;0.00;0.00;;;24.60;55.40;;;;;;4132527;28;20080;-66
2022/05/11 10:54:05;;;;;;;0.00;0.00;;;24.80;55.80;;;;;;4132445;28;20096;-68
2022/05/11 10:56:35;;;;;;;0.00;0.00;;;24.90;54.50;;;;;;4132556;28;20085;-67
2022/05/11 10:59:32;;;;;;;0.00;0.00;;;25.00;54.80;;;;;;4146029;28;20104;-65
2022/05/11 11:02:09;;;;;;;0.00;0.00;;;25.00;54.20;;;;;;4118624;28;20146;-66
2022/05/11 11:05:07;;;;;;;0.00;0.00;;;25.00;53.40;;;;;;4132680;28;20049;-67
2022/05/11 11:07:39;;;;;;;0.00;0.00;;;25.20;52.10;;;;;;4132465;28;20053;-66
2022/05/11 11:10:07;;;;;;;0.00;0.00;;;25.30;52.40;;;;;;4146162;28;20141;-64
2022/05/11 11:12:49;;;;;;;0.00;0.00;;;25.30;52.20;;;;;;4132319;28;20129;-65
2022/05/11 11:15:13;;;;;;;0.00;0.00;;;25.40;52.70;;;;;;4146230;28;20065;-67
2022/05/11 11:17:39;;;;;;;0.00;0.00;;;25.50;53.00;;;;;;4145991;28;20103;-67
2022/05/11 11:20:05;;;;;;;0.00;0.00;;;25.60;52.30;;;;;;4132372;28;20050;-66
2022/05/11 11:23:12;;;;;;;0.00;0.00;;;25.60;52.00;;;;;;4119336;28;20043;-67
2022/05/11 11:25:51;;;;;;;0.00;0.00;;;25.90;52.60;;;;;;4145730;28;20547;-67
2022/05/11 11:28:15;;;;;;;0.00;0.00;;;26.00;50.60;;;;;;4146040;28;20099;-68
2022/05/11 11:31:02;;;;;;;0.00;0.00;;;26.00;50.40;;;;;;4132233;28;20047;-68
2022/05/11 11:33:28;;;;;;;0.00;0.00;;;26.10;49.90;;;;;;4146039;28;20476;-67
2022/05/11 11:35:56;;;;;;;0.00;0.00;;;26.20;50.10;;;;;;4132052;28;20072;-67
2022/05/11 11:38:25;;;;;;;0.00;0.00;;;26.30;50.80;;;;;;4146227;28;20066;-66
2022/05/11 11:41:07;;;;;;;0.00;0.00;;;26.40;50.10;;;;;;4145857;28;20431;-66
2022/05/11 11:43:43;;;;;;;0.00;0.00;;;26.50;49.80;;;;;;4145522;28;20500;-67
2022/05/11 11:46:05;;;;;;;0.00;0.00;;;26.60;48.90;;;;;;4131950;28;20086;-65
2022/05/11 11:48:29;;;;;;;0.00;0.00;;;26.70;48.90;;;;;;4145494;28;20088;-66
2022/05/11 11:51:00;;;;;;;0.00;0.00;;;26.70;49.00;;;;;;4145590;28;20523;-69
2022/05/11 11:53:56;;;;;;;0.00;0.00;;;26.80;48.70;;;;;;4145720;28;20054;-66
2022/05/11 11:56:24;;;;;;;0.00;0.00;;;26.80;47.00;;;;;;4145237;28;20054;-66
2022/05/11 11:58:46;;;;;;;0.00;0.00;;;26.90;48.10;;;;;;4145736;28;20085;-66
2022/05/11 12:01:15;;;;;;;0.00;0.00;;;27.00;47.60;;;;;;4135245;28;20093;-65
2022/05/11 12:03:50;;;;;;;0.00;0.00;;;27.10;47.90;;;;;;4148830;28;20073;-66
2022/05/11 12:15:17;;;;;;;0.00;0.00;;;27.30;47.50;;;;;;4104968;28;20642;-66
2022/05/11 12:17:44;;;;;;;0.00;0.00;;;27.20;45.20;;;;;;4131071;28;20050;-67
2022/05/11 12:20:12;;;;;;;0.00;0.00;;;26.80;46.10;;;;;;4135129;28;20046;-66
2022/05/11 12:22:43;;;;;;;0.00;0.00;;;26.80;46.40;;;;;;4134899;28;20548;-68
2022/05/11 12:25:26;;;;;;;0.00;0.00;;;26.90;46.60;;;;;;4134902;28;20054;-67
2022/05/11 12:27:49;;;;;;;0.00;0.00;;;27.00;46.50;;;;;;4148558;28;20433;-66
2022/05/11 12:30:42;;;;;;;0.00;0.00;;;27.20;45.90;;;;;;4134829;28;20057;-67
2022/05/11 12:33:18;;;;;;;0.00;0.00;;;27.20;45.30;;;;;;4121317;28;20121;-67
2022/05/11 12:35:46;;;;;;;0.00;0.00;;;27.20;46.00;;;;;;4134666;28;20128;-67
2022/05/11 12:38:13;;;;;;;0.00;0.00;;;27.20;44.90;;;;;;4148547;28;20120;-67
2022/05/11 12:40:41;;;;;;;0.00;0.00;;;27.10;45.50;;;;;;4134803;28;20039;-66
2022/05/11 12:43:15;;;;;;;0.00;0.00;;;27.00;45.40;;;;;;4148395;28;20064;-66
2022/05/11 12:45:46;;;;;;;0.00;0.00;;;27.10;45.00;;;;;;4134662;28;20113;-67
2022/05/11 12:48:21;;;;;;;0.00;0.00;;;27.10;45.30;;;;;;4147996;28;20053;-66
2022/05/11 12:50:59;;;;;;;0.00;0.00;;;27.10;46.00;;;;;;4148232;28;20384;-67
2022/05/11 12:53:27;;;;;;;0.00;0.00;;;27.20;45.90;;;;;;4148009;28;20046;-69
2022/05/11 12:55:52;;;;;;;0.00;0.00;;;27.30;45.90;;;;;;4134693;28;20140;-66
2022/05/11 12:58:25;;;;;;;0.00;0.00;;;27.30;46.30;;;;;;4134467;28;20066;-67
2022/05/11 13:00:58;;;;;;;0.00;0.00;;;27.40;46.60;;;;;;4134417;28;20132;-67
2022/05/11 13:03:36;;;;;;;0.00;0.00;;;27.40;45.90;;;;;;4147880;28;20072;-67
2022/05/11 13:06:02;;;;;;;0.00;0.00;;;27.50;46.60;;;;;;4134404;28;20050;-67
2022/05/11 13:08:25;;;;;;;0.00;0.00;;;27.60;47.30;;;;;;4134174;28;20058;-67
2022/05/11 13:10:53;;;;;;;0.00;0.00;;;27.70;47.30;;;;;;4147390;28;20046;-66
2022/05/11 13:13:25;;;;;;;0.00;0.00;;;27.80;47.30;;;;;;4147876;28;20103;-66
2022/05/11 13:15:49;;;;;;;0.00;0.00;;;27.80;47.00;;;;;;4148083;28;20368;-68
2022/05/11 13:18:25;;;;;;;0.00;0.00;;;27.90;46.20;;;;;;4134169;28;20158;-67
2022/05/11 13:20:53;;;;;;;0.00;0.00;;;28.00;46.90;;;;;;4147697;28;20081;-67
2022/05/11 13:24:00;;;;;;;0.00;0.00;;;28.10;47.10;;;;;;4133998;28;20042;-68
2022/05/11 13:26:47;;;;;;;0.00;0.00;;;28.10;46.50;;;;;;4134005;28;20042;-68
2022/05/11 13:29:26;;;;;;;0.00;0.00;;;28.10;49.10;;;;;;4147576;28;20077;-66
2022/05/11 13:32:01;;;;;;;0.00;0.00;;;28.00;50.80;;;;;;4133876;28;20047;-67
2022/05/11 13:34:39;;;;;;;0.00;0.00;;;28.10;49.90;;;;;;4133986;28;20548;-67
2022/05/11 13:37:07;;;;;;;0.00;0.00;;;28.00;47.80;;;;;;4147406;28;20350;-67
2022/05/11 13:39:39;;;;;;;0.00;0.00;;;27.90;47.10;;;;;;4133712;28;20042;-66
2022/05/11 13:42:19;;;;;;;0.00;0.00;;;27.80;47.00;;;;;;4147588;28;20050;-66